Aeroporto :
LOGIN :

Iscrizione | Disclaimer

   EN    FR    IT 

 










Sommario :    VFR   VFR Marginale   IFR   IFR Intensivo   IFR Molto Intensivo
Visibilità : 
Base nubi : 
>= 8 km
>= 3000ft
5 / 8 km
1000 / 3000 ft
1500m / 5 km
500 / 1000 ft
800 / 1500m
200 / 500 ft
< 800m
< 200 ft
Simboli :   Temporali  Nebbia  Neve Forte  Precipitazioni Forti  Vento > 20 kt
SIGMETs :   Varie  Temporali  Ghiacco  Turbolenza  Onda orograficha  Ceneri Vulcaniche






- Altitudine del aeroporto : 218 ft


EGYD - RAF Cranwell

ULTIMO METAR :
  • 020620Z AUTO 12008KT 9999 -DZ FEW003/// OVC014/// 03/02 Q0990

METARs OBSOLETI :
  • 020550Z AUTO 13008KT 8000 -RA BKN004/// OVC013/// 02/02 Q0990
  • 020520Z AUTO 12008KT 7000 -RA BKN010/// OVC020/// 02/02 Q0990
  • 020450Z AUTO 12007KT 9999 -RA SCT012/// BKN020/// 01/01 Q0990
  • 020420Z AUTO 11005KT 5000 BR BKN002/// OVC024/// 01/00 Q0990
  • 012050Z AUTO 15006KT 9999 OVC130/// 01/M00 Q0991
  • 020350Z AUTO 09004KT 6000 BR OVC002/// 01/00 Q0990
  • 020320Z AUTO 10004KT 5000 BR OVC002/// 01/01 Q0990
  • 020250Z AUTO 12006KT 6000 BR BKN002/// BKN023/// 01/00 Q0990
  • 020220Z AUTO 11006KT 9999 FEW004/// 01/M00 Q0990
  • 020150Z AUTO 13006KT 9999 NCD 01/M00 Q0991
  • 020120Z AUTO 13007KT 9999 SCT028/// 01/00 Q0991

Previsioni scadute.



MetMap, La meteo Aeronautica in un colpo d'occhio ! - Copyright ORBIFLY Dicembre 2007 - Disclaimer

ORBIFLY MET'MAP TEAM :

Programmazione e sviluppo : Alexandra Zaïnal
Concezione : Baudouin d'Aumeries
Supporto tecnico e logistico : Manuel Goepfert
Aiuto : Marc-Olivier Méhu
Aiuto per la traduzione : Arnaldo La Scala




FONTI E CREDITI :

   NOAA